sensor_id;sensor_type;location;lat;lon;timestamp;pressure;altitude;pressure_sealevel;temperature;humidity
16100;BME280;8154;50.830;12.082;2023-10-19T00:01:17;98030.22;;;22.01;42.40
16100;BME280;8154;50.830;12.082;2023-10-19T00:03:47;98020.75;;;22.05;42.30
16100;BME280;8154;50.830;12.082;2023-10-19T00:06:16;98020.81;;;21.99;42.30
16100;BME280;8154;50.830;12.082;2023-10-19T00:08:44;98014.53;;;21.93;42.55
16100;BME280;8154;50.830;12.082;2023-10-19T00:11:12;98012.31;;;21.90;42.50
16100;BME280;8154;50.830;12.082;2023-10-19T00:13:48;98010.84;;;21.94;42.31
16100;BME280;8154;50.830;12.082;2023-10-19T00:16:16;98007.00;;;21.90;42.49
16100;BME280;8154;50.830;12.082;2023-10-19T00:18:45;97996.94;;;21.92;42.35
16100;BME280;8154;50.830;12.082;2023-10-19T00:21:15;97994.28;;;21.92;42.47
16100;BME280;8154;50.830;12.082;2023-10-19T00:23:45;97987.34;;;21.91;42.42
16100;BME280;8154;50.830;12.082;2023-10-19T00:26:16;97978.84;;;22.01;42.24
16100;BME280;8154;50.830;12.082;2023-10-19T00:28:51;97977.16;;;22.06;42.04
16100;BME280;8154;50.830;12.082;2023-10-19T00:31:27;97977.88;;;21.95;42.07
16100;BME280;8154;50.830;12.082;2023-10-19T00:33:54;97968.06;;;21.96;42.18
16100;BME280;8154;50.830;12.082;2023-10-19T00:36:23;97966.06;;;21.91;42.15
16100;BME280;8154;50.830;12.082;2023-10-19T00:38:51;97964.44;;;21.90;42.34
16100;BME280;8154;50.830;12.082;2023-10-19T00:41:21;97957.88;;;21.93;42.27
16100;BME280;8154;50.830;12.082;2023-10-19T00:43:48;97959.91;;;21.91;42.22
16100;BME280;8154;50.830;12.082;2023-10-19T00:46:17;97954.97;;;21.94;42.13
16100;BME280;8154;50.830;12.082;2023-10-19T00:48:55;97961.91;;;21.95;42.28
16100;BME280;8154;50.830;12.082;2023-10-19T00:51:27;97948.63;;;21.95;42.18
16100;BME280;8154;50.830;12.082;2023-10-19T00:54:04;97946.41;;;21.92;42.27
16100;BME280;8154;50.830;12.082;2023-10-19T00:56:36;97944.34;;;21.94;42.13
16100;BME280;8154;50.830;12.082;2023-10-19T00:59:03;97942.72;;;21.93;42.07
16100;BME280;8154;50.830;12.082;2023-10-19T01:01:43;97933.09;;;21.92;42.01
16100;BME280;8154;50.830;12.082;2023-10-19T01:04:11;97928.97;;;21.96;42.01
16100;BME280;8154;50.830;12.082;2023-10-19T01:06:43;97922.09;;;22.07;41.83
16100;BME280;8154;50.830;12.082;2023-10-19T01:09:44;97907.09;;;22.12;41.59
16100;BME280;8154;50.830;12.082;2023-10-19T01:12:10;97910.63;;;22.06;41.73
16100;BME280;8154;50.830;12.082;2023-10-19T01:17:35;97895.66;;;21.94;41.92
16100;BME280;8154;50.830;12.082;2023-10-19T01:25:59;97892.47;;;22.03;41.80
16100;BME280;8154;50.830;12.082;2023-10-19T01:28:36;97831.22;;;21.74;41.61
16100;BME280;8154;50.830;12.082;2023-10-19T01:31:28;97878.38;;;22.03;41.79
16100;BME280;8154;50.830;12.082;2023-10-19T01:33:55;97880.50;;;21.94;41.91
16100;BME280;8154;50.830;12.082;2023-10-19T01:36:22;97863.22;;;21.85;41.93
16100;BME280;8154;50.830;12.082;2023-10-19T01:38:49;97874.59;;;21.92;41.94
16100;BME280;8154;50.830;12.082;2023-10-19T01:41:21;97875.19;;;21.94;41.91
16100;BME280;8154;50.830;12.082;2023-10-19T01:43:50;97867.22;;;21.94;41.86
16100;BME280;8154;50.830;12.082;2023-10-19T01:46:23;97861.75;;;22.07;41.74
16100;BME280;8154;50.830;12.082;2023-10-19T01:48:57;97855.97;;;22.10;41.60
16100;BME280;8154;50.830;12.082;2023-10-19T01:51:26;97867.50;;;22.04;41.64
16100;BME280;8154;50.830;12.082;2023-10-19T01:53:55;97854.72;;;21.95;41.78
16100;BME280;8154;50.830;12.082;2023-10-19T01:56:24;97857.16;;;21.96;41.83
16100;BME280;8154;50.830;12.082;2023-10-19T01:58:51;97856.34;;;21.96;41.81
16100;BME280;8154;50.830;12.082;2023-10-19T02:01:21;97852.63;;;21.97;41.88
16100;BME280;8154;50.830;12.082;2023-10-19T02:03:58;97860.38;;;21.98;41.68
16100;BME280;8154;50.830;12.082;2023-10-19T02:06:27;97824.94;;;21.86;41.52
16100;BME280;8154;50.830;12.082;2023-10-19T02:08:58;97845.63;;;22.02;41.68
16100;BME280;8154;50.830;12.082;2023-10-19T02:11:35;97841.16;;;22.14;41.38
16100;BME280;8154;50.830;12.082;2023-10-19T02:14:08;97830.66;;;22.19;41.33
16100;BME280;8154;50.830;12.082;2023-10-19T02:16:50;97828.16;;;22.06;41.58
16100;BME280;8154;50.830;12.082;2023-10-19T02:19:24;97827.00;;;22.02;41.67
16100;BME280;8154;50.830;12.082;2023-10-19T02:21:53;97820.06;;;22.01;41.76
16100;BME280;8154;50.830;12.082;2023-10-19T02:24:19;97823.75;;;22.00;41.67
16100;BME280;8154;50.830;12.082;2023-10-19T02:26:49;97807.88;;;21.94;41.74
16100;BME280;8154;50.830;12.082;2023-10-19T02:29:17;97804.53;;;21.98;41.61
16100;BME280;8154;50.830;12.082;2023-10-19T02:31:45;97805.13;;;22.00;41.68
16100;BME280;8154;50.830;12.082;2023-10-19T02:34:12;97800.84;;;21.99;41.77
16100;BME280;8154;50.830;12.082;2023-10-19T02:36:43;97807.03;;;22.11;41.33
16100;BME280;8154;50.830;12.082;2023-10-19T02:39:11;97794.88;;;22.15;41.36
16100;BME280;8154;50.830;12.082;2023-10-19T02:41:39;97797.78;;;22.14;41.20
16100;BME280;8154;50.830;12.082;2023-10-19T02:44:15;97791.16;;;22.05;41.46
16100;BME280;8154;50.830;12.082;2023-10-19T02:49:13;97787.56;;;21.99;41.72
16100;BME280;8154;50.830;12.082;2023-10-19T02:51:42;97778.75;;;21.99;41.56
16100;BME280;8154;50.830;12.082;2023-10-19T02:54:16;97773.66;;;21.97;41.62
16100;BME280;8154;50.830;12.082;2023-10-19T02:56:51;97766.97;;;22.06;41.48
16100;BME280;8154;50.830;12.082;2023-10-19T02:59:25;97754.97;;;22.15;41.33
16100;BME280;8154;50.830;12.082;2023-10-19T03:01:57;97747.34;;;22.07;41.45
16100;BME280;8154;50.830;12.082;2023-10-19T03:04:28;97751.47;;;22.03;41.40
16100;BME280;8154;50.830;12.082;2023-10-19T03:06:55;97740.69;;;21.98;41.59
16100;BME280;8154;50.830;12.082;2023-10-19T03:09:24;97747.22;;;22.02;41.58
16100;BME280;8154;50.830;12.082;2023-10-19T03:11:54;97749.88;;;22.02;41.53
16100;BME280;8154;50.830;12.082;2023-10-19T03:14:22;97731.09;;;21.97;41.59
16100;BME280;8154;50.830;12.082;2023-10-19T03:16:53;97737.63;;;22.13;41.43
16100;BME280;8154;50.830;12.082;2023-10-19T03:19:23;97740.06;;;22.14;41.18
16100;BME280;8154;50.830;12.082;2023-10-19T03:21:53;97739.94;;;22.09;41.31
16100;BME280;8154;50.830;12.082;2023-10-19T03:24:21;97733.69;;;22.04;41.40
16100;BME280;8154;50.830;12.082;2023-10-19T03:27:09;97729.41;;;22.03;41.34
16100;BME280;8154;50.830;12.082;2023-10-19T03:29:48;97720.84;;;22.01;41.41
16100;BME280;8154;50.830;12.082;2023-10-19T03:32:28;97714.50;;;22.13;41.16
16100;BME280;8154;50.830;12.082;2023-10-19T03:35:01;97711.94;;;22.18;40.99
16100;BME280;8154;50.830;12.082;2023-10-19T03:37:30;97713.47;;;22.14;41.00
16100;BME280;8154;50.830;12.082;2023-10-19T03:40:04;97715.41;;;22.07;41.32
16100;BME280;8154;50.830;12.082;2023-10-19T03:42:35;97707.31;;;22.02;41.50
16100;BME280;8154;50.830;12.082;2023-10-19T03:45:09;97690.06;;;21.93;41.46
16100;BME280;8154;50.830;12.082;2023-10-19T03:47:44;97709.75;;;22.04;41.34
16100;BME280;8154;50.830;12.082;2023-10-19T03:50:13;97698.16;;;21.98;41.50
16100;BME280;8154;50.830;12.082;2023-10-19T03:52:41;97686.16;;;22.07;41.34
16100;BME280;8154;50.830;12.082;2023-10-19T03:55:09;97664.88;;;22.07;41.14
16100;BME280;8154;50.830;12.082;2023-10-19T03:57:49;97675.28;;;22.09;41.17
16100;BME280;8154;50.830;12.082;2023-10-19T04:00:20;97670.06;;;22.02;41.30
16100;BME280;8154;50.830;12.082;2023-10-19T04:02:54;97675.63;;;22.01;41.51
16100;BME280;8154;50.830;12.082;2023-10-19T04:05:21;97675.38;;;22.02;41.40
16100;BME280;8154;50.830;12.082;2023-10-19T04:07:52;97675.38;;;22.02;41.33
16100;BME280;8154;50.830;12.082;2023-10-19T04:10:22;97667.03;;;21.99;41.59
16100;BME280;8154;50.830;12.082;2023-10-19T04:13:02;97650.75;;;22.07;41.37
16100;BME280;8154;50.830;12.082;2023-10-19T04:15:48;97648.22;;;22.12;41.08
16100;BME280;8154;50.830;12.082;2023-10-19T04:18:16;97652.03;;;22.04;41.36
16100;BME280;8154;50.830;12.082;2023-10-19T04:20:45;97642.28;;;21.98;41.24
16100;BME280;8154;50.830;12.082;2023-10-19T04:23:14;97640.22;;;21.89;41.50
16100;BME280;8154;50.830;12.082;2023-10-19T04:25:47;97648.19;;;22.00;41.45
16100;BME280;8154;50.830;12.082;2023-10-19T04:28:15;97640.69;;;21.97;41.49
16100;BME280;8154;50.830;12.082;2023-10-19T04:30:42;97635.72;;;22.01;41.27
16100;BME280;8154;50.830;12.082;2023-10-19T04:33:08;97640.72;;;22.09;41.24
16100;BME280;8154;50.830;12.082;2023-10-19T04:35:36;97639.56;;;22.16;41.05
16100;BME280;8154;50.830;12.082;2023-10-19T04:38:05;97632.13;;;22.07;41.16
16100;BME280;8154;50.830;12.082;2023-10-19T04:40:36;97626.31;;;21.98;41.33
16100;BME280;8154;50.830;12.082;2023-10-19T04:43:12;97623.22;;;21.90;41.53
16100;BME280;8154;50.830;12.082;2023-10-19T04:45:40;97618.72;;;21.90;41.50
16100;BME280;8154;50.830;12.082;2023-10-19T04:48:12;97620.91;;;21.93;41.58
16100;BME280;8154;50.830;12.082;2023-10-19T04:50:43;97613.50;;;21.95;41.51
16100;BME280;8154;50.830;12.082;2023-10-19T04:53:13;97609.25;;;22.06;41.15
16100;BME280;8154;50.830;12.082;2023-10-19T04:55:52;97606.34;;;22.07;41.29
16100;BME280;8154;50.830;12.082;2023-10-19T04:58:22;97606.22;;;22.02;41.25
16100;BME280;8154;50.830;12.082;2023-10-19T05:00:52;97593.84;;;21.96;41.46
16100;BME280;8154;50.830;12.082;2023-10-19T05:03:26;97590.97;;;21.98;41.41
16100;BME280;8154;50.830;12.082;2023-10-19T05:05:58;97593.75;;;22.03;41.34
16100;BME280;8154;50.830;12.082;2023-10-19T05:08:44;97584.03;;;22.08;41.24
16100;BME280;8154;50.830;12.082;2023-10-19T05:11:15;97590.84;;;22.04;41.22
16100;BME280;8154;50.830;12.082;2023-10-19T05:13:43;97585.88;;;21.96;41.31
16100;BME280;8154;50.830;12.082;2023-10-19T05:16:10;97579.97;;;21.94;41.38
16100;BME280;8154;50.830;12.082;2023-10-19T05:18:42;97579.38;;;21.92;41.47
16100;BME280;8154;50.830;12.082;2023-10-19T05:21:25;97580.19;;;21.93;41.61
16100;BME280;8154;50.830;12.082;2023-10-19T05:23:52;97567.34;;;21.90;41.46
16100;BME280;8154;50.830;12.082;2023-10-19T05:26:20;97572.91;;;22.00;41.36
16100;BME280;8154;50.830;12.082;2023-10-19T05:28:53;97585.41;;;21.99;41.40
16100;BME280;8154;50.830;12.082;2023-10-19T05:31:24;97574.44;;;22.07;41.10
16100;BME280;8154;50.830;12.082;2023-10-19T05:34:10;97577.66;;;22.09;41.05
16100;BME280;8154;50.830;12.082;2023-10-19T05:36:38;97577.56;;;22.04;41.04
16100;BME280;8154;50.830;12.082;2023-10-19T05:39:06;97584.22;;;21.95;41.42
16100;BME280;8154;50.830;12.082;2023-10-19T05:41:33;97579.59;;;21.91;41.50
16100;BME280;8154;50.830;12.082;2023-10-19T05:44:11;97572.91;;;21.88;41.46
16100;BME280;8154;50.830;12.082;2023-10-19T05:46:38;97573.59;;;21.95;41.38
16100;BME280;8154;50.830;12.082;2023-10-19T05:49:11;97574.91;;;22.04;41.19
16100;BME280;8154;50.830;12.082;2023-10-19T05:51:38;97567.25;;;21.96;41.21
16100;BME280;8154;50.830;12.082;2023-10-19T05:54:06;97564.69;;;21.90;41.36
16100;BME280;8154;50.830;12.082;2023-10-19T05:56:34;97576.72;;;21.92;41.43
16100;BME280;8154;50.830;12.082;2023-10-19T05:59:02;97578.22;;;21.88;41.40
16100;BME280;8154;50.830;12.082;2023-10-19T06:01:30;97577.31;;;21.94;41.32
16100;BME280;8154;50.830;12.082;2023-10-19T06:03:57;97580.00;;;22.06;41.22
16100;BME280;8154;50.830;12.082;2023-10-19T06:06:25;97579.72;;;21.96;41.22
16100;BME280;8154;50.830;12.082;2023-10-19T06:08:51;97591.28;;;21.90;41.32
16100;BME280;8154;50.830;12.082;2023-10-19T06:11:22;97593.72;;;21.91;41.44
16100;BME280;8154;50.830;12.082;2023-10-19T06:13:49;97587.81;;;21.78;41.55
16100;BME280;8154;50.830;12.082;2023-10-19T06:16:17;97590.72;;;21.88;41.43
16100;BME280;8154;50.830;12.082;2023-10-19T06:18:44;97593.38;;;21.88;41.39
16100;BME280;8154;50.830;12.082;2023-10-19T06:21:10;97584.69;;;21.92;41.44
16100;BME280;8154;50.830;12.082;2023-10-19T06:23:39;97594.75;;;22.02;41.19
16100;BME280;8154;50.830;12.082;2023-10-19T06:26:12;97589.31;;;21.97;41.16
16100;BME280;8154;50.830;12.082;2023-10-19T06:28:39;97596.16;;;21.93;41.26
16100;BME280;8154;50.830;12.082;2023-10-19T06:31:08;97592.56;;;21.87;41.29
16100;BME280;8154;50.830;12.082;2023-10-19T06:33:35;97599.16;;;21.85;41.49
16100;BME280;8154;50.830;12.082;2023-10-19T06:36:03;97602.16;;;21.88;41.36
16100;BME280;8154;50.830;12.082;2023-10-19T06:38:31;97605.88;;;21.99;41.11
16100;BME280;8154;50.830;12.082;2023-10-19T06:40:59;97603.44;;;21.97;41.15
16100;BME280;8154;50.830;12.082;2023-10-19T06:43:26;97606.44;;;21.89;41.39
16100;BME280;8154;50.830;12.082;2023-10-19T06:45:55;97616.28;;;21.89;41.40
16100;BME280;8154;50.830;12.082;2023-10-19T06:48:24;97613.63;;;21.89;41.28
16100;BME280;8154;50.830;12.082;2023-10-19T06:50:51;97609.31;;;21.88;41.35
16100;BME280;8154;50.830;12.082;2023-10-19T06:53:17;97611.75;;;21.89;41.30
16100;BME280;8154;50.830;12.082;2023-10-19T06:55:44;97612.81;;;21.88;41.47
16100;BME280;8154;50.830;12.082;2023-10-19T06:58:11;97611.66;;;21.96;41.20
16100;BME280;8154;50.830;12.082;2023-10-19T07:00:40;97593.38;;;21.88;41.26
16100;BME280;8154;50.830;12.082;2023-10-19T07:03:09;97605.97;;;21.92;41.24
16100;BME280;8154;50.830;12.082;2023-10-19T07:05:37;97612.94;;;21.93;41.27
16100;BME280;8154;50.830;12.082;2023-10-19T07:08:03;97613.94;;;21.92;41.28
16100;BME280;8154;50.830;12.082;2023-10-19T07:10:34;97621.13;;;21.92;41.30
16100;BME280;8154;50.830;12.082;2023-10-19T07:13:00;97620.91;;;21.93;41.32
16100;BME280;8154;50.830;12.082;2023-10-19T07:15:27;97622.06;;;21.97;41.23
16100;BME280;8154;50.830;12.082;2023-10-19T07:17:57;97605.06;;;21.98;41.09
16100;BME280;8154;50.830;12.082;2023-10-19T07:20:44;97595.91;;;21.94;41.25
16100;BME280;8154;50.830;12.082;2023-10-19T07:23:14;97595.13;;;22.05;40.98
16100;BME280;8154;50.830;12.082;2023-10-19T07:25:53;97606.22;;;22.02;41.08
16100;BME280;8154;50.830;12.082;2023-10-19T07:28:30;97597.88;;;21.99;41.04
16100;BME280;8154;50.830;12.082;2023-10-19T07:30:58;97603.22;;;21.99;41.03
16100;BME280;8154;50.830;12.082;2023-10-19T07:33:26;97600.78;;;21.97;41.23
16100;BME280;8154;50.830;12.082;2023-10-19T07:35:52;97601.38;;;21.99;41.21
16100;BME280;8154;50.830;12.082;2023-10-19T07:38:23;97599.06;;;22.14;41.09
16100;BME280;8154;50.830;12.082;2023-10-19T07:40:51;97600.44;;;22.17;40.70
16100;BME280;8154;50.830;12.082;2023-10-19T07:43:20;97604.59;;;22.13;40.75
16100;BME280;8154;50.830;12.082;2023-10-19T07:45:48;97581.69;;;22.00;40.91
16100;BME280;8154;50.830;12.082;2023-10-19T07:48:14;97603.34;;;22.04;41.08
16100;BME280;8154;50.830;12.082;2023-10-19T07:50:43;97603.34;;;22.04;40.99
16100;BME280;8154;50.830;12.082;2023-10-19T07:53:09;97611.19;;;21.99;41.27
16100;BME280;8154;50.830;12.082;2023-10-19T07:55:36;97610.81;;;21.95;41.09
16100;BME280;8154;50.830;12.082;2023-10-19T07:58:05;97610.03;;;21.95;41.24
16100;BME280;8154;50.830;12.082;2023-10-19T08:00:33;97596.47;;;21.85;41.24
16100;BME280;8154;50.830;12.082;2023-10-19T08:03:04;97606.47;;;22.01;41.01
16100;BME280;8154;50.830;12.082;2023-10-19T08:05:35;97613.97;;;22.04;41.13
16100;BME280;8154;50.830;12.082;2023-10-19T08:08:03;97612.13;;;22.04;40.97
16100;BME280;8154;50.830;12.082;2023-10-19T08:10:32;97611.09;;;22.05;40.92
16100;BME280;8154;50.830;12.082;2023-10-19T08:13:01;97615.38;;;22.18;40.80
16100;BME280;8154;50.830;12.082;2023-10-19T08:15:29;97616.41;;;22.05;41.08
16100;BME280;8154;50.830;12.082;2023-10-19T08:17:56;97604.94;;;22.05;41.03
16100;BME280;8154;50.830;12.082;2023-10-19T08:20:23;97610.03;;;22.06;41.09
16100;BME280;8154;50.830;12.082;2023-10-19T08:22:58;97598.47;;;22.01;41.05
16100;BME280;8154;50.830;12.082;2023-10-19T08:25:25;97598.84;;;22.04;40.68
16100;BME280;8154;50.830;12.082;2023-10-19T08:27:56;97604.03;;;22.11;40.99
16100;BME280;8154;50.830;12.082;2023-10-19T08:30:25;97602.41;;;22.10;40.91
16100;BME280;8154;50.830;12.082;2023-10-19T08:32:52;97603.22;;;22.10;41.00
16100;BME280;8154;50.830;12.082;2023-10-19T08:35:20;97618.00;;;22.06;41.01
16100;BME280;8154;50.830;12.082;2023-10-19T08:37:55;97610.16;;;22.11;40.86
16100;BME280;8154;50.830;12.082;2023-10-19T08:40:25;97610.84;;;22.07;41.06
16100;BME280;8154;50.830;12.082;2023-10-19T08:42:54;97606.22;;;22.02;40.98
16100;BME280;8154;50.830;12.082;2023-10-19T08:45:21;97612.47;;;22.08;40.85
16100;BME280;8154;50.830;12.082;2023-10-19T08:47:58;97587.94;;;21.94;40.90
16100;BME280;8154;50.830;12.082;2023-10-19T08:50:28;97606.91;;;22.09;40.90
16100;BME280;8154;50.830;12.082;2023-10-19T08:52:57;97610.28;;;22.16;40.63
16100;BME280;8154;50.830;12.082;2023-10-19T08:55:24;97600.91;;;22.14;40.70
16100;BME280;8154;50.830;12.082;2023-10-19T08:57:51;97589.22;;;22.03;40.90
16100;BME280;8154;50.830;12.082;2023-10-19T09:00:20;97594.88;;;21.95;41.26
16100;BME280;8154;50.830;12.082;2023-10-19T09:02:54;97594.19;;;22.00;41.04
16100;BME280;8154;50.830;12.082;2023-10-19T09:05:22;97595.13;;;22.05;41.00
16100;BME280;8154;50.830;12.082;2023-10-19T09:07:52;97597.09;;;22.10;40.82
16100;BME280;8154;50.830;12.082;2023-10-19T09:10:25;97592.34;;;22.12;40.96
16100;BME280;8154;50.830;12.082;2023-10-19T09:13:03;97584.69;;;21.92;41.24
16100;BME280;8154;50.830;12.082;2023-10-19T09:15:30;97575.31;;;21.78;41.83
16100;BME280;8154;50.830;12.082;2023-10-19T09:18:17;97568.16;;;22.02;41.16
16100;BME280;8154;50.830;12.082;2023-10-19T09:20:46;97570.84;;;22.13;40.91
16100;BME280;8154;50.830;12.082;2023-10-19T09:23:21;97556.63;;;22.19;40.87
16100;BME280;8154;50.830;12.082;2023-10-19T09:25:50;97554.31;;;22.23;40.68
16100;BME280;8154;50.830;12.082;2023-10-19T09:28:21;97571.41;;;22.27;40.59
16100;BME280;8154;50.830;12.082;2023-10-19T09:30:51;97578.56;;;22.26;40.59
16100;BME280;8154;50.830;12.082;2023-10-19T09:33:17;97572.78;;;22.29;40.62
16100;BME280;8154;50.830;12.082;2023-10-19T09:35:48;97579.97;;;22.29;40.57
16100;BME280;8154;50.830;12.082;2023-10-19T09:38:18;97584.25;;;22.30;40.50
16100;BME280;8154;50.830;12.082;2023-10-19T09:40:54;97570.13;;;22.29;40.44
16100;BME280;8154;50.830;12.082;2023-10-19T09:43:45;97574.66;;;22.29;40.44
16100;BME280;8154;50.830;12.082;2023-10-19T09:46:15;97570.94;;;22.30;40.51
16100;BME280;8154;50.830;12.082;2023-10-19T09:48:46;97577.88;;;22.31;40.42
16100;BME280;8154;50.830;12.082;2023-10-19T09:51:17;97578.34;;;22.28;40.84
16100;BME280;8154;50.830;12.082;2023-10-19T09:54:01;97566.09;;;22.27;40.46
16100;BME280;8154;50.830;12.082;2023-10-19T09:56:35;97575.44;;;22.29;40.34
16100;BME280;8154;50.830;12.082;2023-10-19T09:59:33;97568.75;;;22.27;40.41
16100;BME280;8154;50.830;12.082;2023-10-19T10:02:06;97567.81;;;21.98;40.97
16100;BME280;8154;50.830;12.082;2023-10-19T10:04:35;97580.75;;;21.83;41.59
16100;BME280;8154;50.830;12.082;2023-10-19T10:07:01;97578.09;;;21.83;41.59
16100;BME280;8154;50.830;12.082;2023-10-19T10:09:41;97568.88;;;22.09;41.11
16100;BME280;8154;50.830;12.082;2023-10-19T10:12:20;97558.69;;;22.06;41.18
16100;BME280;8154;50.830;12.082;2023-10-19T10:14:57;97558.78;;;21.88;41.42
16100;BME280;8154;50.830;12.082;2023-10-19T10:17:25;97552.88;;;21.74;41.82
16100;BME280;8154;50.830;12.082;2023-10-19T10:22:40;97541.22;;;21.75;41.91
16100;BME280;8154;50.830;12.082;2023-10-19T10:25:29;97532.66;;;21.73;41.96
16100;BME280;8154;50.830;12.082;2023-10-19T10:27:57;97531.56;;;21.63;42.15
16100;BME280;8154;50.830;12.082;2023-10-19T10:30:23;97530.41;;;21.59;42.22
16100;BME280;8154;50.830;12.082;2023-10-19T10:32:53;97530.06;;;21.55;42.35
16100;BME280;8154;50.830;12.082;2023-10-19T10:38:08;97515.75;;;21.56;42.37
16100;BME280;8154;50.830;12.082;2023-10-19T10:40:46;97518.63;;;21.55;42.40
16100;BME280;8154;50.830;12.082;2023-10-19T10:43:18;97517.00;;;21.54;42.46
16100;BME280;8154;50.830;12.082;2023-10-19T10:45:45;97514.09;;;21.55;42.45
16100;BME280;8154;50.830;12.082;2023-10-19T10:48:16;97509.63;;;21.56;42.35
16100;BME280;8154;50.830;12.082;2023-10-19T10:50:43;97513.88;;;21.57;42.34
16100;BME280;8154;50.830;12.082;2023-10-19T10:53:13;97509.16;;;21.59;42.27
16100;BME280;8154;50.830;12.082;2023-10-19T10:55:47;97503.28;;;21.68;42.21
16100;BME280;8154;50.830;12.082;2023-10-19T10:58:18;97495.66;;;21.72;42.03
16100;BME280;8154;50.830;12.082;2023-10-19T11:00:46;97496.91;;;21.69;42.18
16100;BME280;8154;50.830;12.082;2023-10-19T11:03:13;97491.25;;;21.66;42.25
16100;BME280;8154;50.830;12.082;2023-10-19T11:05:41;97491.34;;;21.71;42.16
16100;BME280;8154;50.830;12.082;2023-10-19T11:08:09;97503.72;;;21.65;42.28
16100;BME280;8154;50.830;12.082;2023-10-19T11:10:40;97503.72;;;21.65;42.21
16100;BME280;8154;50.830;12.082;2023-10-19T11:13:18;97496.56;;;21.66;42.30
16100;BME280;8154;50.830;12.082;2023-10-19T11:15:54;97498.66;;;21.64;42.28
16100;BME280;8154;50.830;12.082;2023-10-19T11:18:48;97506.63;;;21.64;42.27
16100;BME280;8154;50.830;12.082;2023-10-19T11:21:16;97503.38;;;21.62;42.32
16100;BME280;8154;50.830;12.082;2023-10-19T11:26:15;97502.09;;;21.64;42.21
16100;BME280;8154;50.830;12.082;2023-10-19T11:28:44;97505.84;;;21.75;42.27
16100;BME280;8154;50.830;12.082;2023-10-19T11:31:19;97500.63;;;21.80;42.04
16100;BME280;8154;50.830;12.082;2023-10-19T11:33:51;97500.88;;;21.78;42.10
16100;BME280;8154;50.830;12.082;2023-10-19T11:36:18;97494.16;;;21.76;42.07
16100;BME280;8154;50.830;12.082;2023-10-19T11:38:47;97502.00;;;21.71;42.24
16100;BME280;8154;50.830;12.082;2023-10-19T11:41:16;97493.09;;;21.65;42.31
16100;BME280;8154;50.830;12.082;2023-10-19T11:43:47;97491.34;;;21.71;42.16
16100;BME280;8154;50.830;12.082;2023-10-19T11:46:14;97490.69;;;21.75;42.08
16100;BME280;8154;50.830;12.082;2023-10-19T11:48:42;97483.53;;;21.76;42.01
16100;BME280;8154;50.830;12.082;2023-10-19T11:51:10;97479.03;;;21.76;42.13
16100;BME280;8154;50.830;12.082;2023-10-19T11:53:38;97478.88;;;21.71;42.19
16100;BME280;8154;50.830;12.082;2023-10-19T11:56:07;97470.09;;;21.71;42.20
16100;BME280;8154;50.830;12.082;2023-10-19T11:58:35;97472.75;;;21.71;42.16
16100;BME280;8154;50.830;12.082;2023-10-19T12:01:04;97469.53;;;21.80;41.96
16100;BME280;8154;50.830;12.082;2023-10-19T12:03:51;97466.53;;;21.88;41.90
16100;BME280;8154;50.830;12.082;2023-10-19T12:06:18;97460.88;;;21.96;41.64
16100;BME280;8154;50.830;12.082;2023-10-19T12:08:50;97461.53;;;22.03;41.50
16100;BME280;8154;50.830;12.082;2023-10-19T12:11:16;97457.41;;;21.96;41.87
16100;BME280;8154;50.830;12.082;2023-10-19T12:13:46;97464.22;;;21.80;41.69
16100;BME280;8154;50.830;12.082;2023-10-19T12:16:13;97461.44;;;21.75;42.18
16100;BME280;8154;50.830;12.082;2023-10-19T12:18:46;97458.56;;;21.77;42.15
16100;BME280;8154;50.830;12.082;2023-10-19T12:21:16;97453.91;;;21.72;42.19
16100;BME280;8154;50.830;12.082;2023-10-19T12:23:44;97456.94;;;21.76;42.23
16100;BME280;8154;50.830;12.082;2023-10-19T12:26:17;97462.47;;;21.74;42.15
16100;BME280;8154;50.830;12.082;2023-10-19T12:28:43;97462.69;;;21.73;42.26
16100;BME280;8154;50.830;12.082;2023-10-19T12:31:12;97457.63;;;21.71;42.23
16100;BME280;8154;50.830;12.082;2023-10-19T12:33:42;97457.63;;;21.71;42.26
16100;BME280;8154;50.830;12.082;2023-10-19T12:36:10;97436.03;;;21.79;42.05
16100;BME280;8154;50.830;12.082;2023-10-19T12:38:55;97441.91;;;21.93;41.74
16100;BME280;8154;50.830;12.082;2023-10-19T12:41:22;97443.03;;;21.97;41.78
16100;BME280;8154;50.830;12.082;2023-10-19T12:43:50;97446.16;;;21.94;41.88
16100;BME280;8154;50.830;12.082;2023-10-19T12:46:35;97439.81;;;21.95;41.63
16100;BME280;8154;50.830;12.082;2023-10-19T12:49:07;97439.59;;;21.96;41.76
16100;BME280;8154;50.830;12.082;2023-10-19T12:51:42;97442.13;;;21.91;41.88
16100;BME280;8154;50.830;12.082;2023-10-19T12:54:11;97433.22;;;21.74;41.97
16100;BME280;8154;50.830;12.082;2023-10-19T12:56:40;97444.25;;;21.78;42.16
16100;BME280;8154;50.830;12.082;2023-10-19T12:59:17;97443.78;;;21.81;42.06
16100;BME280;8154;50.830;12.082;2023-10-19T13:01:47;97447.03;;;21.83;42.02
16100;BME280;8154;50.830;12.082;2023-10-19T13:04:15;97444.38;;;21.83;41.98
16100;BME280;8154;50.830;12.082;2023-10-19T13:06:45;97434.50;;;21.83;42.03
16100;BME280;8154;50.830;12.082;2023-10-19T13:09:14;97440.06;;;21.82;42.08
16100;BME280;8154;50.830;12.082;2023-10-19T13:11:41;97430.84;;;21.84;41.96
16100;BME280;8154;50.830;12.082;2023-10-19T13:14:11;97429.31;;;21.88;41.95
16100;BME280;8154;50.830;12.082;2023-10-19T13:16:38;97425.25;;;21.97;41.79
16100;BME280;8154;50.830;12.082;2023-10-19T13:19:04;97417.03;;;21.99;41.69
16100;BME280;8154;50.830;12.082;2023-10-19T13:21:42;97419.44;;;22.00;41.70
16100;BME280;8154;50.830;12.082;2023-10-19T13:24:10;97413.44;;;22.05;41.73
16100;BME280;8154;50.830;12.082;2023-10-19T13:26:36;97417.25;;;21.97;41.59
16100;BME280;8154;50.830;12.082;2023-10-19T13:29:07;97414.06;;;21.84;42.06
16100;BME280;8154;50.830;12.082;2023-10-19T13:31:33;97422.50;;;21.81;42.10
16100;BME280;8154;50.830;12.082;2023-10-19T13:34:01;97422.16;;;21.89;41.98
16100;BME280;8154;50.830;12.082;2023-10-19T13:36:29;97414.97;;;21.89;41.95
16100;BME280;8154;50.830;12.082;2023-10-19T13:38:56;97411.03;;;21.92;41.80